Time;durP1;ratioP1;P1;durP2;ratioP2;P2;SDS_P1;SDS_P2;PMS_P1;PMS_P2;Temp;Humidity;BMP_temperature;BMP_pressure;BME280_temperature;BME280_humidity;BME280_pressure;Samples;Min_cycle;Max_cycle;Signal;HPM_P1;HPM_P2
2022/04/28 00:01:08;;;;;;;5.32;4.72;;;;;;;7.64;55.74;102039.47;7398946;19;20011;-69
2022/04/28 00:03:36;;;;;;;5.10;4.60;;;;;;;7.59;55.96;102033.31;7396763;19;20018;-68
2022/04/28 00:06:04;;;;;;;8.23;4.60;;;;;;;7.52;55.90;102023.69;7396943;19;20032;-69
2022/04/28 00:08:33;;;;;;;5.70;4.80;;;;;;;7.47;56.10;102021.00;7397520;19;20477;-69
2022/04/28 00:11:01;;;;;;;9.55;5.35;;;;;;;7.42;56.13;102025.31;7395566;19;20017;-69
2022/04/28 00:13:29;;;;;;;6.72;5.57;;;;;;;7.37;56.51;102021.75;7396042;19;20038;-69
2022/04/28 00:16:00;;;;;;;7.22;5.43;;;;;;;7.32;56.59;102020.84;7396014;19;20022;-69
2022/04/28 00:18:35;;;;;;;6.68;5.50;;;;;;;7.25;56.68;102030.28;7396309;19;20035;-69
2022/04/28 00:21:03;;;;;;;6.65;5.35;;;;;;;7.21;56.89;102027.66;7395916;19;20022;-69
2022/04/28 00:23:31;;;;;;;5.95;4.70;;;;;;;7.15;56.78;102031.03;7395752;19;20014;-69
2022/04/28 00:25:59;;;;;;;6.80;4.72;;;;;;;7.11;57.05;102024.03;7396509;19;20035;-69
2022/04/28 00:28:27;;;;;;;8.90;5.63;;;;;;;7.03;56.96;102025.66;7397291;19;20379;-69
2022/04/28 00:30:55;;;;;;;8.25;4.85;;;;;;;7.04;57.19;102030.03;7395523;19;20031;-68
2022/04/28 00:33:27;;;;;;;6.05;5.40;;;;;;;6.99;57.15;102029.97;7397430;19;20487;-69
2022/04/28 00:35:55;;;;;;;6.60;5.50;;;;;;;6.94;57.29;102035.13;7397767;19;20014;-69
2022/04/28 00:38:23;;;;;;;8.88;5.00;;;;;;;6.92;57.50;102035.97;7395497;19;20034;-69
2022/04/28 00:40:51;;;;;;;6.60;5.63;;;;;;;6.89;57.78;102042.00;7397305;19;20019;-69
2022/04/28 00:43:28;;;;;;;6.95;5.68;;;;;;;6.85;57.89;102037.63;7395359;19;20023;-68
2022/04/28 00:45:57;;;;;;;8.88;6.32;;;;;;;6.83;58.12;102047.13;7397272;19;20035;-69
2022/04/28 00:51:10;;;;;;;9.00;7.15;;;;;;;6.76;58.79;102042.69;7396408;19;20025;-69
2022/04/28 00:53:43;;;;;;;10.77;7.38;;;;;;;6.72;59.17;102048.72;7396491;19;20018;-68
2022/04/28 00:56:12;;;;;;;8.63;7.10;;;;;;;6.66;59.17;102047.75;7397360;19;20014;-69
2022/04/28 00:58:41;;;;;;;8.07;6.50;;;;;;;6.63;59.52;102052.91;7394957;19;20035;-69
2022/04/28 01:01:09;;;;;;;9.82;7.28;;;;;;;6.59;59.58;102058.94;7396584;19;20026;-69
2022/04/28 01:03:40;;;;;;;11.13;6.75;;;;;;;6.56;59.73;102050.19;7394778;19;20023;-68
2022/04/28 01:06:08;;;;;;;9.07;6.65;;;;;;;6.53;59.97;102053.63;7396948;19;20039;-68
2022/04/28 01:08:37;;;;;;;8.65;6.53;;;;;;;6.50;60.05;102066.63;7396432;19;20027;-69
2022/04/28 01:11:05;;;;;;;8.60;6.57;;;;;;;6.48;59.98;102060.50;7394326;19;20018;-69
2022/04/28 01:13:33;;;;;;;8.95;6.68;;;;;;;6.43;60.02;102063.06;7397391;19;20031;-68
2022/04/28 01:16:02;;;;;;;8.52;6.10;;;;;;;6.38;60.25;102063.81;7394059;19;20485;-68
2022/04/28 01:18:30;;;;;;;6.78;6.18;;;;;;;6.32;60.44;102069.81;7392178;19;20375;-69
2022/04/28 01:21:06;;;;;;;8.35;6.40;;;;;;;6.28;60.65;102071.50;7394264;19;20036;-69
2022/04/28 01:23:34;;;;;;;7.40;6.35;;;;;;;6.24;60.56;102074.00;7394595;19;20030;-69
2022/04/28 01:26:03;;;;;;;8.77;6.15;;;;;;;6.19;60.65;102079.13;7395767;19;20039;-69
2022/04/28 01:28:32;;;;;;;7.53;5.80;;;;;;;6.15;60.90;102078.19;7395751;19;20042;-69
2022/04/28 01:31:02;;;;;;;8.23;6.35;;;;;;;6.11;60.87;102078.13;7393945;19;20036;-68
2022/04/28 01:33:31;;;;;;;6.90;6.30;;;;;;;6.08;60.69;102078.94;7395374;19;20017;-69
2022/04/28 01:35:59;;;;;;;6.70;5.75;;;;;;;6.03;61.05;102075.38;7395650;19;20018;-69
2022/04/28 01:38:32;;;;;;;9.52;6.22;;;;;;;6.00;60.89;102083.13;7395585;19;20378;-69
2022/04/28 01:41:00;;;;;;;7.07;6.38;;;;;;;5.96;60.95;102084.75;7395839;19;20377;-69
2022/04/28 01:43:28;;;;;;;7.72;6.50;;;;;;;5.93;61.26;102082.09;7395118;19;20022;-68
2022/04/28 01:45:56;;;;;;;7.55;6.32;;;;;;;5.91;61.30;102081.19;7395265;19;20017;-69
2022/04/28 01:48:25;;;;;;;6.82;6.18;;;;;;;5.90;61.43;102084.63;7395107;19;20023;-69
2022/04/28 01:56:17;;;;;;;6.85;6.15;;;;;;;5.85;61.72;102079.34;7395476;19;20018;-69
2022/04/28 01:58:45;;;;;;;8.02;6.38;;;;;;;5.83;61.76;102075.84;7394863;19;20039;-69
2022/04/28 02:01:13;;;;;;;7.32;6.20;;;;;;;5.79;61.99;102074.03;7394792;19;20011;-69
2022/04/28 02:03:41;;;;;;;9.95;6.25;;;;;;;5.79;62.06;102081.84;7393941;19;20497;-69
2022/04/28 02:06:09;;;;;;;9.13;6.60;;;;;;;5.77;61.98;102080.91;7394686;19;20019;-69
2022/04/28 02:08:41;;;;;;;6.82;6.13;;;;;;;5.75;62.21;102080.03;7394665;19;20022;-69
2022/04/28 02:11:10;;;;;;;8.05;6.47;;;;;;;5.72;62.38;102090.38;7393733;19;20026;-69
2022/04/28 02:13:38;;;;;;;7.32;6.57;;;;;;;5.73;62.38;102083.47;7393738;19;20492;-69
2022/04/28 02:16:07;;;;;;;8.43;5.95;;;;;;;5.70;62.39;102081.66;7394298;19;20034;-69
2022/04/28 02:18:35;;;;;;;7.28;6.05;;;;;;;5.68;62.53;102075.53;7393938;19;20481;-70
2022/04/28 02:21:03;;;;;;;9.98;6.60;;;;;;;5.66;62.62;102075.53;7395546;19;20035;-70
2022/04/28 02:23:31;;;;;;;7.10;5.93;;;;;;;5.66;62.44;102082.44;7396454;19;20024;-70
2022/04/28 02:26:02;;;;;;;7.28;5.35;;;;;;;5.65;62.75;102080.66;7395092;19;20038;-69
2022/04/28 02:28:30;;;;;;;7.85;6.35;;;;;;;5.63;62.54;102078.03;7393767;19;20467;-70
2022/04/28 02:30:58;;;;;;;9.15;5.95;;;;;;;5.62;62.38;102072.81;7395550;19;20037;-69
2022/04/28 02:33:26;;;;;;;7.25;5.88;;;;;;;5.59;62.61;102086.66;7398480;19;20039;-69
2022/04/28 02:35:55;;;;;;;7.47;5.65;;;;;;;5.57;62.48;102083.13;7398367;19;20492;-69
2022/04/28 02:38:23;;;;;;;7.15;6.22;;;;;;;5.54;62.49;102076.13;7401046;19;20018;-69
2022/04/28 02:40:51;;;;;;;10.07;6.25;;;;;;;5.52;62.68;102082.16;7401249;19;20032;-69
2022/04/28 02:43:22;;;;;;;6.63;5.85;;;;;;;5.49;62.77;102080.38;7398199;19;20436;-69
2022/04/28 02:45:51;;;;;;;8.90;7.07;;;;;;;5.48;62.58;102080.34;7401423;19;20019;-69
2022/04/28 02:48:19;;;;;;;7.97;6.47;;;;;;;5.44;62.66;102074.19;7400536;19;20496;-69
2022/04/28 02:50:47;;;;;;;8.93;6.45;;;;;;;5.43;62.54;102076.75;7400883;19;20018;-69
2022/04/28 02:53:15;;;;;;;7.80;5.75;;;;;;;5.39;62.67;102074.06;7397702;19;20383;-69
2022/04/28 02:55:43;;;;;;;6.68;5.60;;;;;;;5.36;62.79;102083.56;7398037;19;20027;-70
2022/04/28 02:58:12;;;;;;;6.82;6.00;;;;;;;5.32;62.85;102074.81;7400647;19;20022;-69
2022/04/28 03:00:42;;;;;;;8.65;6.10;;;;;;;5.29;63.00;102082.53;7400306;19;20432;-70
2022/04/28 03:03:11;;;;;;;9.02;6.15;;;;;;;5.24;62.94;102084.16;7401011;19;20036;-69
2022/04/28 03:11:00;;;;;;;7.63;6.20;;;;;;;5.13;62.98;102090.84;7399174;19;20026;-70
2022/04/28 03:13:32;;;;;;;9.77;7.30;;;;;;;5.12;63.26;102096.91;7397159;19;20477;-69
2022/04/28 03:16:03;;;;;;;10.77;6.95;;;;;;;5.08;63.49;102088.19;7400594;19;20085;-70
2022/04/28 03:18:31;;;;;;;9.73;7.07;;;;;;;5.08;63.61;102095.09;7400361;19;20020;-70
2022/04/28 03:20:59;;;;;;;9.85;6.75;;;;;;;5.06;63.96;102089.84;7400052;19;20032;-70
2022/04/28 03:23:27;;;;;;;10.02;7.32;;;;;;;5.04;63.92;102092.44;7399237;19;20481;-69
2022/04/28 03:25:55;;;;;;;11.40;7.53;;;;;;;5.03;64.22;102089.75;7399796;19;20014;-69
2022/04/28 03:28:24;;;;;;;13.00;6.78;;;;;;;5.02;64.54;102091.50;7399158;19;20375;-70
2022/04/28 03:30:53;;;;;;;7.32;6.50;;;;;;;5.01;64.63;102092.34;7399672;19;20019;-69
2022/04/28 03:33:23;;;;;;;9.07;6.13;;;;;;;5.00;64.40;102098.38;7397202;19;20109;-69
2022/04/28 03:35:51;;;;;;;8.18;6.70;;;;;;;4.98;64.45;102101.78;7399631;19;20047;-69
2022/04/28 03:38:20;;;;;;;8.38;6.45;;;;;;;4.96;64.39;102100.91;7398894;19;20035;-70
2022/04/28 03:40:48;;;;;;;9.13;6.53;;;;;;;4.92;64.52;102096.47;7398909;19;20019;-69
2022/04/28 03:43:17;;;;;;;7.93;5.75;;;;;;;4.92;64.42;102099.94;7395065;19;20041;-69
2022/04/28 03:45:46;;;;;;;9.18;6.35;;;;;;;4.87;64.69;102094.63;7398408;19;20485;-69
2022/04/28 03:48:16;;;;;;;7.75;6.28;;;;;;;4.85;64.72;102101.53;7398503;19;20035;-69
2022/04/28 03:50:46;;;;;;;7.05;5.43;;;;;;;4.82;64.78;102104.03;7398767;19;20018;-69
2022/04/28 03:53:15;;;;;;;7.97;6.43;;;;;;;4.79;64.90;102105.69;7396717;19;20035;-70
2022/04/28 03:55:43;;;;;;;9.13;6.50;;;;;;;4.76;64.88;102110.81;7396301;19;20036;-69
2022/04/28 03:58:11;;;;;;;10.50;6.75;;;;;;;4.73;65.17;102115.09;7396201;19;20022;-69
2022/04/28 04:00:39;;;;;;;7.35;6.65;;;;;;;4.70;64.95;102106.34;7398346;19;20039;-69
2022/04/28 04:03:07;;;;;;;7.93;6.68;;;;;;;4.67;65.08;102104.53;7398181;19;20022;-69
2022/04/28 04:05:35;;;;;;;9.48;7.28;;;;;;;4.65;65.37;102105.34;7395826;19;20027;-69
2022/04/28 04:08:06;;;;;;;8.48;6.20;;;;;;;4.62;65.33;102118.28;7397595;19;20477;-69
2022/04/28 04:10:35;;;;;;;9.40;7.10;;;;;;;4.56;65.45;102111.19;7395858;19;20026;-71
2022/04/28 04:13:10;;;;;;;12.20;7.03;;;;;;;4.55;65.66;102118.13;7395149;19;20019;-69
2022/04/28 04:15:44;;;;;;;8.55;7.25;;;;;;;4.52;65.77;102119.75;7395738;19;20022;-68
2022/04/28 04:18:12;;;;;;;9.85;7.38;;;;;;;4.49;65.69;102122.28;7397705;19;20035;-68
2022/04/28 04:20:40;;;;;;;10.95;7.75;;;;;;;4.46;65.77;102128.31;7396504;19;20031;-67
2022/04/28 04:23:11;;;;;;;10.82;7.43;;;;;;;4.44;65.86;102127.38;7395462;19;20028;-69
2022/04/28 04:25:39;;;;;;;8.90;7.18;;;;;;;4.43;65.77;102129.94;7395208;19;20392;-69
2022/04/28 04:28:07;;;;;;;9.60;7.70;;;;;;;4.42;66.09;102131.63;7397464;19;20018;-69
2022/04/28 04:33:16;;;;;;;9.50;7.53;;;;;;;4.40;65.94;102142.00;7395125;19;20018;-68
2022/04/28 04:35:44;;;;;;;11.57;8.32;;;;;;;4.40;65.97;102143.72;7394357;19;20018;-69
2022/04/28 04:38:15;;;;;;;13.40;7.63;;;;;;;4.42;66.22;102146.34;7394901;19;20018;-69
2022/04/28 04:40:43;;;;;;;10.40;7.80;;;;;;;4.41;66.34;102145.50;7395027;19;20018;-69
2022/04/28 04:43:13;;;;;;;9.25;7.97;;;;;;;4.42;66.24;102152.41;7394759;19;20042;-69
2022/04/28 04:45:42;;;;;;;10.77;7.53;;;;;;;4.42;66.33;102154.16;7395424;19;20018;-69
2022/04/28 04:48:10;;;;;;;11.43;7.88;;;;;;;4.45;66.41;102151.63;7396661;19;20022;-69
2022/04/28 04:50:39;;;;;;;14.93;8.80;;;;;;;4.44;66.70;102155.94;7396428;19;20022;-69
2022/04/28 04:53:08;;;;;;;12.05;8.40;;;;;;;4.45;66.78;102156.81;7392826;19;20037;-69
2022/04/28 04:55:39;;;;;;;10.77;8.55;;;;;;;4.47;66.71;102163.81;7393175;19;20022;-68
2022/04/28 04:58:07;;;;;;;14.40;8.52;;;;;;;4.50;66.92;102163.91;7395489;19;20379;-69
2022/04/28 05:00:36;;;;;;;15.10;9.68;;;;;;;4.52;67.08;102163.94;7396249;19;20015;-68
2022/04/28 05:03:04;;;;;;;12.15;9.07;;;;;;;4.56;67.21;102170.97;7394568;19;20014;-67
2022/04/28 05:05:32;;;;;;;11.68;8.93;;;;;;;4.57;67.00;102172.75;7393123;19;20022;-68
2022/04/28 05:08:00;;;;;;;10.60;8.77;;;;;;;4.62;67.02;102180.66;7394519;19;20014;-68
2022/04/28 05:10:28;;;;;;;10.75;8.07;;;;;;;4.65;67.22;102180.75;7394637;19;20014;-67
2022/04/28 05:13:27;;;;;;;10.70;9.25;;;;;;;4.69;67.35;102178.25;7393148;19;20093;-65
2022/04/28 05:15:56;;;;;;;15.27;10.20;;;;;;;4.72;67.15;102177.47;7396295;19;20372;-75
2022/04/28 05:18:24;;;;;;;13.40;9.68;;;;;;;4.80;67.34;102185.44;7394862;19;20430;-67
2022/04/28 05:20:52;;;;;;;12.30;9.52;;;;;;;4.84;67.54;102189.88;7395497;19;20014;-68
2022/04/28 05:23:21;;;;;;;17.63;12.38;;;;;;;4.91;67.50;102189.19;7393518;19;20014;-70
2022/04/28 05:25:49;;;;;;;16.77;11.40;;;;;;;4.97;67.62;102191.09;7394851;19;20030;-68
2022/04/28 05:28:20;;;;;;;17.30;10.75;;;;;;;5.03;67.67;102189.50;7395107;19;20022;-69
2022/04/28 05:30:49;;;;;;;17.15;10.18;;;;;;;5.10;67.73;102184.47;7394047;19;20482;-68
2022/04/28 05:33:17;;;;;;;17.75;12.65;;;;;;;5.17;68.17;102194.19;7392812;19;20038;-67
2022/04/28 05:35:45;;;;;;;17.65;11.95;;;;;;;5.25;68.58;102195.22;7393141;19;20019;-68
2022/04/28 05:38:13;;;;;;;18.77;11.90;;;;;;;5.34;69.03;102195.44;7392607;19;20039;-67
2022/04/28 05:40:42;;;;;;;21.60;12.75;;;;;;;5.44;69.36;102193.06;7393986;19;20031;-66
2022/04/28 05:45:56;;;;;;;17.13;11.88;;;;;;;5.63;69.33;102203.03;7394840;19;20010;-66
2022/04/28 05:48:24;;;;;;;15.73;13.13;;;;;;;5.71;69.25;102200.59;7393202;19;20018;-66
2022/04/28 05:50:52;;;;;;;16.42;12.00;;;;;;;5.80;69.35;102208.63;7394438;19;20019;-66
2022/04/28 05:53:21;;;;;;;16.77;11.73;;;;;;;5.88;69.67;102208.78;7393610;19;20015;-65
2022/04/28 05:55:49;;;;;;;16.65;12.02;;;;;;;5.97;69.94;102214.16;7392634;19;20019;-63
2022/04/28 05:58:17;;;;;;;14.85;10.93;;;;;;;6.07;69.87;102211.81;7393428;19;20042;-70
2022/04/28 06:00:46;;;;;;;14.43;11.15;;;;;;;6.16;69.87;102215.47;7394078;19;20485;-67
2022/04/28 06:03:17;;;;;;;14.82;11.00;;;;;;;6.29;70.17;102218.31;7393928;19;20019;-70
2022/04/28 06:05:45;;;;;;;15.32;10.30;;;;;;;6.41;69.69;102212.44;7395678;19;20018;-67
2022/04/28 06:08:13;;;;;;;13.63;10.45;;;;;;;6.51;69.57;102206.59;7401159;19;20364;-67
2022/04/28 06:10:41;;;;;;;18.25;11.40;;;;;;;6.63;69.02;102212.00;7398953;19;20023;-68
2022/04/28 06:13:16;;;;;;;17.13;10.98;;;;;;;6.73;68.71;102215.66;7399245;19;20023;-69
2022/04/28 06:15:44;;;;;;;14.35;10.85;;;;;;;6.82;68.54;102220.16;7398741;19;20019;-67
2022/04/28 06:18:12;;;;;;;14.90;10.65;;;;;;;6.91;68.23;102217.69;7398651;19;20039;-64
2022/04/28 06:20:43;;;;;;;14.07;10.48;;;;;;;7.02;67.86;102223.13;7398662;19;20019;-66
2022/04/28 06:23:11;;;;;;;17.25;10.77;;;;;;;7.10;67.58;102221.53;7398257;19;20462;-66
2022/04/28 06:25:40;;;;;;;13.55;9.50;;;;;;;7.20;67.34;102230.34;7398339;19;20038;-65
2022/04/28 06:28:09;;;;;;;14.18;9.95;;;;;;;7.28;66.99;102234.00;7398699;19;20035;-64
2022/04/28 06:30:37;;;;;;;16.23;10.43;;;;;;;7.37;66.86;102227.13;7397943;19;20021;-66
2022/04/28 06:33:08;;;;;;;13.15;10.00;;;;;;;7.45;66.96;102225.53;7399408;19;20506;-65
2022/04/28 06:35:36;;;;;;;16.42;9.57;;;;;;;7.54;66.46;102230.00;7397828;19;20034;-66
2022/04/28 06:38:07;;;;;;;13.82;8.93;;;;;;;7.64;66.05;102238.00;7400236;19;20388;-65
2022/04/28 06:40:35;;;;;;;10.93;8.43;;;;;;;7.75;65.49;102229.44;7399805;19;20416;-66
2022/04/28 06:43:03;;;;;;;12.23;8.13;;;;;;;7.84;65.11;102229.56;7400688;19;20039;-65
2022/04/28 06:45:31;;;;;;;11.00;8.00;;;;;;;7.96;64.48;102228.84;7397659;19;20031;-65
2022/04/28 06:48:01;;;;;;;10.35;7.65;;;;;;;8.07;64.07;102232.47;7397176;19;20014;-65
2022/04/28 06:50:29;;;;;;;11.73;7.03;;;;;;;8.16;63.53;102223.84;7400285;19;20011;-65
2022/04/28 06:52:57;;;;;;;16.38;6.95;;;;;;;8.30;63.05;102231.88;7397306;19;20018;-64
2022/04/28 06:55:28;;;;;;;12.82;7.75;;;;;;;8.42;62.41;102229.41;7397468;19;20035;-65
2022/04/28 06:57:56;;;;;;;10.07;7.18;;;;;;;8.54;62.01;102228.69;7399583;19;20506;-65
2022/04/28 07:00:24;;;;;;;11.95;7.65;;;;;;;8.65;61.15;102234.03;7399649;19;20380;-65
2022/04/28 07:02:52;;;;;;;14.27;6.78;;;;;;;8.78;60.66;102237.63;7400137;19;20496;-65
2022/04/28 07:05:20;;;;;;;13.18;7.15;;;;;;;8.86;59.96;102233.38;7397532;19;20022;-66
2022/04/28 07:07:50;;;;;;;10.35;6.78;;;;;;;9.00;59.72;102233.50;7399852;19;20038;-62
2022/04/28 07:10:18;;;;;;;12.95;7.13;;;;;;;9.11;59.68;102239.69;7397212;19;20481;-69
2022/04/28 07:12:48;;;;;;;10.95;8.10;;;;;;;9.21;59.42;102231.91;7397990;19;20010;-66
2022/04/28 07:15:16;;;;;;;11.50;7.70;;;;;;;9.34;59.53;102227.63;7397541;19;20427;-66
2022/04/28 07:17:45;;;;;;;9.45;7.90;;;;;;;9.44;59.17;102232.97;7395186;19;20046;-64
2022/04/28 07:20:13;;;;;;;11.25;8.48;;;;;;;9.55;59.06;102235.63;7397445;19;20007;-66
2022/04/28 07:22:42;;;;;;;11.18;7.68;;;;;;;9.63;59.03;102233.09;7399689;19;20018;-66
2022/04/28 07:25:11;;;;;;;11.23;8.32;;;;;;;9.73;58.87;102236.63;7397169;19;20022;-66
2022/04/28 07:27:39;;;;;;;11.88;8.50;;;;;;;9.82;58.87;102239.31;7397403;19;20031;-67
2022/04/28 07:30:12;;;;;;;15.10;9.32;;;;;;;9.92;58.72;102232.34;7398982;19;20396;-66
2022/04/28 07:32:40;;;;;;;16.48;9.15;;;;;;;10.01;58.51;102242.91;7399046;19;20376;-66
2022/04/28 07:35:09;;;;;;;14.00;8.65;;;;;;;10.10;58.25;102242.06;7395763;19;20014;-65
2022/04/28 07:37:37;;;;;;;14.98;8.15;;;;;;;10.17;58.26;102246.44;7395202;19;20469;-68
2022/04/28 07:40:06;;;;;;;11.32;7.55;;;;;;;10.26;58.00;102232.47;7398743;19;20048;-66
2022/04/28 07:42:35;;;;;;;10.70;7.20;;;;;;;10.35;57.85;102243.03;7395958;19;20074;-64
2022/04/28 07:45:03;;;;;;;12.73;8.35;;;;;;;10.45;57.57;102236.09;7396216;19;20019;-66
2022/04/28 07:47:34;;;;;;;11.02;7.60;;;;;;;10.56;57.17;102242.25;7398264;19;20019;-65
2022/04/28 07:50:02;;;;;;;11.38;8.10;;;;;;;10.67;56.87;102233.53;7396849;19;20023;-66
2022/04/28 07:52:30;;;;;;;11.90;7.20;;;;;;;10.75;56.52;102235.28;7397761;19;20486;-64
2022/04/28 07:54:59;;;;;;;11.57;7.03;;;;;;;10.84;55.46;102242.31;7395923;19;20022;-66
2022/04/28 07:57:27;;;;;;;14.82;8.45;;;;;;;10.92;55.31;102239.69;7399145;19;20022;-65
2022/04/28 07:59:55;;;;;;;10.77;7.25;;;;;;;11.00;54.64;102243.16;7397685;19;20591;-65
2022/04/28 08:02:23;;;;;;;10.15;5.95;;;;;;;11.08;54.46;102237.91;7396588;19;20019;-65
2022/04/28 08:04:54;;;;;;;10.63;6.15;;;;;;;11.18;53.49;102242.28;7396537;19;20011;-65
2022/04/28 08:07:23;;;;;;;8.95;5.85;;;;;;;11.27;52.93;102251.91;7398751;19;20018;-65
2022/04/28 08:09:51;;;;;;;7.03;5.07;;;;;;;11.35;52.23;102246.69;7398068;19;20019;-66
2022/04/28 08:12:19;;;;;;;9.13;5.97;;;;;;;11.43;51.44;102246.66;7395423;19;20034;-66
2022/04/28 08:14:47;;;;;;;8.57;6.03;;;;;;;11.49;51.47;102246.66;7395411;19;20040;-65
2022/04/28 08:17:15;;;;;;;9.80;6.78;;;;;;;11.55;51.05;102244.91;7397495;19;20506;-66
2022/04/28 08:19:44;;;;;;;9.98;6.43;;;;;;;11.61;51.01;102246.63;7396861;19;20015;-65
2022/04/28 08:22:15;;;;;;;8.32;5.57;;;;;;;11.66;50.67;102254.50;7395458;19;20018;-66
2022/04/28 08:24:43;;;;;;;11.38;6.60;;;;;;;11.73;50.48;102249.22;7396233;19;20010;-65
2022/04/28 08:27:11;;;;;;;9.50;6.35;;;;;;;11.80;50.61;102251.84;7395075;19;20360;-66
2022/04/28 08:29:39;;;;;;;12.90;6.75;;;;;;;11.87;50.74;102250.97;7396919;19;20035;-66
2022/04/28 08:32:08;;;;;;;13.25;6.70;;;;;;;11.93;50.88;102244.78;7394906;19;20481;-66
2022/04/28 08:34:36;;;;;;;8.75;6.50;;;;;;;11.99;50.47;102239.53;7395713;19;20026;-66
2022/04/28 08:37:04;;;;;;;15.45;6.93;;;;;;;12.07;50.56;102240.41;7396825;19;20022;-66
2022/04/28 08:39:35;;;;;;;9.07;6.25;;;;;;;12.14;50.30;102236.84;7394290;19;20006;-66
2022/04/28 08:42:03;;;;;;;9.05;5.53;;;;;;;12.23;49.96;102238.56;7397119;19;20022;-66
2022/04/28 08:44:32;;;;;;;9.15;6.80;;;;;;;12.30;50.10;102240.28;7395872;19;20022;-66
2022/04/28 08:47:02;;;;;;;13.57;7.20;;;;;;;12.39;49.60;102236.72;7397768;19;20022;-66
2022/04/28 08:49:32;;;;;;;10.18;6.97;;;;;;;12.49;49.63;102242.81;7395731;19;20014;-65
2022/04/28 08:52:02;;;;;;;11.25;7.50;;;;;;;12.60;49.32;102241.00;7396273;19;20035;-65
2022/04/28 08:54:32;;;;;;;11.73;7.47;;;;;;;12.71;49.34;102238.28;7394492;19;20027;-66
2022/04/28 08:57:02;;;;;;;13.90;7.63;;;;;;;12.84;49.20;102242.59;7395023;19;20030;-66
2022/04/28 08:59:30;;;;;;;10.48;7.53;;;;;;;12.99;48.95;102243.34;7395814;19;20018;-65
2022/04/28 09:01:58;;;;;;;10.52;7.13;;;;;;;13.13;48.51;102230.06;7394920;19;20493;-66
2022/04/28 09:04:27;;;;;;;9.80;7.07;;;;;;;13.26;48.44;102231.72;7395353;19;20039;-65
2022/04/28 09:06:57;;;;;;;12.25;7.45;;;;;;;13.38;48.22;102233.38;7394187;19;20473;-66
2022/04/28 09:09:28;;;;;;;13.45;8.00;;;;;;;13.48;47.81;102237.69;7394973;19;20042;-66
2022/04/28 09:12:00;;;;;;;10.75;7.13;;;;;;;13.57;47.58;102246.38;7393502;19;20370;-66
2022/04/28 09:14:32;;;;;;;11.45;7.65;;;;;;;13.63;47.12;102233.13;7394087;19;20018;-66
2022/04/28 09:17:03;;;;;;;9.52;7.60;;;;;;;13.70;47.27;102237.47;7395742;19;20014;-66
2022/04/28 09:19:34;;;;;;;9.70;7.78;;;;;;;13.75;47.18;102240.94;7396004;19;20026;-66
2022/04/28 09:22:06;;;;;;;10.07;7.35;;;;;;;13.83;47.07;102236.41;7393887;19;20113;-66
2022/04/28 09:24:35;;;;;;;8.90;7.65;;;;;;;13.91;46.98;102249.50;7394429;19;20086;-66
2022/04/28 09:27:04;;;;;;;11.13;7.63;;;;;;;13.94;46.50;102248.59;7395197;19;20035;-66
2022/04/28 09:29:36;;;;;;;12.50;6.80;;;;;;;13.93;46.07;102246.88;7394415;19;20014;-66
2022/04/28 09:32:12;;;;;;;12.48;8.05;;;;;;;13.90;45.79;102245.16;7395625;19;20018;-66
2022/04/28 09:34:47;;;;;;;11.90;7.90;;;;;;;13.93;45.74;102249.53;7394443;19;20059;-65
2022/04/28 09:37:18;;;;;;;11.23;7.07;;;;;;;13.97;46.06;102246.81;7393953;19;20025;-66
2022/04/28 09:42:35;;;;;;;9.65;7.68;;;;;;;14.13;45.92;102236.09;7395124;19;20371;-66
2022/04/28 09:45:08;;;;;;;12.05;8.15;;;;;;;14.22;45.73;102241.25;7393762;19;20015;-66
2022/04/28 09:47:37;;;;;;;10.27;7.10;;;;;;;14.28;45.23;102243.81;7395476;19;20025;-67
2022/04/28 09:50:15;;;;;;;11.57;7.63;;;;;;;14.24;44.33;102233.28;7392954;19;20014;-66
2022/04/28 09:52:45;;;;;;;10.32;7.38;;;;;;;14.20;45.09;102236.88;7395034;19;20105;-66
2022/04/28 09:55:15;;;;;;;11.85;7.18;;;;;;;14.16;45.54;102236.91;7393308;19;20019;-66
2022/04/28 09:57:43;;;;;;;9.63;6.85;;;;;;;14.17;45.54;102232.50;7392987;19;20010;-68
2022/04/28 10:00:16;;;;;;;10.98;6.47;;;;;;;14.21;45.01;102233.34;7395524;19;20014;-65
2022/04/28 10:02:44;;;;;;;9.45;6.65;;;;;;;14.24;42.96;102238.56;7395046;19;20034;-66
2022/04/28 10:05:14;;;;;;;10.10;6.50;;;;;;;14.21;42.55;102239.50;7391859;19;20361;-66
2022/04/28 10:07:43;;;;;;;9.55;6.40;;;;;;;14.27;44.25;102238.53;7394008;19;20022;-69
2022/04/28 10:10:11;;;;;;;9.50;7.57;;;;;;;14.35;44.16;102236.66;7394056;19;20028;-66
2022/04/28 10:12:42;;;;;;;10.27;6.43;;;;;;;14.40;43.91;102242.75;7392127;19;20482;-67
2022/04/28 10:15:13;;;;;;;9.32;7.20;;;;;;;14.43;43.76;102236.56;7392130;19;20473;-67
2022/04/28 10:17:51;;;;;;;8.85;7.35;;;;;;;14.50;42.49;102246.13;7394889;19;20019;-67
2022/04/28 10:20:22;;;;;;;8.98;6.28;;;;;;;14.57;43.00;102249.56;7394663;19;20406;-67
2022/04/28 10:22:53;;;;;;;9.10;7.38;;;;;;;14.59;43.29;102239.84;7393712;19;20492;-69
2022/04/28 10:33:47;;;;;;;7.85;6.15;;;;;;;14.70;43.66;102252.91;7395327;19;20011;-67
2022/04/28 10:36:20;;;;;;;10.93;6.70;;;;;;;14.74;43.51;102244.94;7395308;19;20023;-67
2022/04/28 10:39:08;;;;;;;10.52;6.45;;;;;;;14.82;43.64;102253.63;7393090;19;20015;-68
2022/04/28 10:41:37;;;;;;;12.32;7.43;;;;;;;14.84;43.51;102243.03;7391832;19;20014;-65
2022/04/28 10:44:18;;;;;;;13.05;6.55;;;;;;;14.82;42.36;102250.09;7391923;19;20019;-66
2022/04/28 10:46:59;;;;;;;8.95;5.97;;;;;;;14.86;41.62;102245.66;7392870;19;20029;-64
2022/04/28 10:49:39;;;;;;;10.13;6.40;;;;;;;14.88;42.10;102243.84;7394598;19;20070;-65
2022/04/28 10:52:09;;;;;;;10.00;6.28;;;;;;;14.97;42.03;102247.22;7394537;19;20023;-65
2022/04/28 10:54:46;;;;;;;12.60;5.63;;;;;;;15.07;39.98;102241.78;7398815;19;20039;-64
2022/04/28 10:57:21;;;;;;;9.43;6.25;;;;;;;15.22;41.12;102251.22;7400921;19;20018;-65
2022/04/28 10:59:53;;;;;;;10.45;5.97;;;;;;;15.37;40.87;102245.66;7401563;19;20023;-65
2022/04/28 11:02:51;;;;;;;8.70;5.43;;;;;;;15.48;40.71;102256.06;7400360;19;20015;-64
2022/04/28 11:05:40;;;;;;;9.60;7.00;;;;;;;15.51;40.63;102253.34;7397216;19;20018;-64
2022/04/28 11:08:26;;;;;;;13.07;6.72;;;;;;;15.43;40.70;102242.91;7397204;19;20014;-64
2022/04/28 11:11:12;;;;;;;7.40;6.38;;;;;;;15.35;40.89;102246.59;7400054;19;20015;-64
2022/04/28 11:13:43;;;;;;;9.90;6.22;;;;;;;15.30;41.14;102249.31;7398097;19;20090;-64
2022/04/28 11:16:12;;;;;;;8.27;6.22;;;;;;;15.32;41.02;102244.88;7396413;19;20027;-65
2022/04/28 11:18:42;;;;;;;10.95;6.10;;;;;;;15.39;41.32;102241.25;7396741;19;20158;-64
2022/04/28 11:21:14;;;;;;;8.35;5.88;;;;;;;15.53;40.38;102243.63;7394074;19;20496;-64
2022/04/28 11:23:45;;;;;;;8.50;5.97;;;;;;;15.68;40.78;102233.66;7396726;19;20028;-65
2022/04/28 11:26:15;;;;;;;9.10;6.30;;;;;;;15.82;40.18;102230.75;7396632;19;20360;-67
2022/04/28 11:28:44;;;;;;;10.18;6.03;;;;;;;15.88;40.15;102231.50;7397281;19;20026;-65
2022/04/28 11:31:15;;;;;;;9.52;6.18;;;;;;;15.78;39.52;102240.50;7396605;19;20045;-64
2022/04/28 11:33:45;;;;;;;8.48;6.13;;;;;;;15.72;39.93;102246.78;7398524;19;20011;-64
2022/04/28 11:36:21;;;;;;;7.45;5.28;;;;;;;15.70;39.15;102234.50;7396846;19;20082;-64
2022/04/28 11:38:52;;;;;;;9.43;5.93;;;;;;;15.68;39.58;102239.78;7396090;19;20025;-65
2022/04/28 11:41:26;;;;;;;9.73;7.43;;;;;;;15.74;39.87;102237.03;7398759;19;20019;-66
2022/04/28 11:43:55;;;;;;;10.27;6.70;;;;;;;15.84;39.90;102221.03;7396033;19;20022;-65
2022/04/28 11:46:23;;;;;;;10.25;6.28;;;;;;;15.96;39.60;102219.00;7397896;19;20018;-64
2022/04/28 11:48:54;;;;;;;8.45;6.25;;;;;;;16.16;39.36;102219.47;7398098;19;20414;-66
2022/04/28 11:51:28;;;;;;;7.18;6.03;;;;;;;16.39;38.37;102219.84;7396703;19;20019;-65
2022/04/28 11:53:56;;;;;;;13.98;8.00;;;;;;;16.49;38.56;102217.84;7396650;19;20026;-64
2022/04/28 11:56:29;;;;;;;9.52;6.30;;;;;;;16.43;38.52;102218.84;7396339;19;20023;-64
2022/04/28 11:58:58;;;;;;;9.18;6.53;;;;;;;16.28;38.28;102220.06;7398774;19;20025;-66
2022/04/28 12:01:29;;;;;;;11.15;8.60;;;;;;;16.27;38.54;102213.03;7398027;19;20031;-64
2022/04/28 12:03:59;;;;;;;8.93;5.68;;;;;;;16.35;38.52;102223.47;7396709;19;20042;-64
2022/04/28 12:06:30;;;;;;;10.65;6.80;;;;;;;16.39;38.05;102217.19;7395727;19;20022;-71